sensor_id;sensor_type;location;lat;lon;timestamp;P1;durP1;ratioP1;P2;durP2;ratioP2
30062;SDS011;16889;67.864;24.990;2023-02-15T00:03:39;10.88;;;2.20;;
30062;SDS011;16889;67.864;24.990;2023-02-15T00:08:25;6.72;;;2.10;;
30062;SDS011;16889;67.864;24.990;2023-02-15T00:13:11;9.55;;;1.83;;
30062;SDS011;16889;67.864;24.990;2023-02-15T00:17:57;8.73;;;1.60;;
30062;SDS011;16889;67.864;24.990;2023-02-15T00:22:43;5.63;;;1.98;;
30062;SDS011;16889;67.864;24.990;2023-02-15T00:27:28;10.70;;;2.30;;
30062;SDS011;16889;67.864;24.990;2023-02-15T00:32:14;8.18;;;1.90;;
30062;SDS011;16889;67.864;24.990;2023-02-15T00:37:00;6.20;;;1.92;;
30062;SDS011;16889;67.864;24.990;2023-02-15T00:41:46;7.45;;;1.88;;
30062;SDS011;16889;67.864;24.990;2023-02-15T00:46:32;7.03;;;2.35;;
30062;SDS011;16889;67.864;24.990;2023-02-15T00:51:19;8.93;;;2.03;;
30062;SDS011;16889;67.864;24.990;2023-02-15T00:56:05;5.15;;;1.55;;
30062;SDS011;16889;67.864;24.990;2023-02-15T01:00:51;9.88;;;1.80;;
30062;SDS011;16889;67.864;24.990;2023-02-15T01:05:38;6.00;;;1.43;;
30062;SDS011;16889;67.864;24.990;2023-02-15T01:10:24;8.88;;;1.85;;
30062;SDS011;16889;67.864;24.990;2023-02-15T01:15:11;12.25;;;2.15;;
30062;SDS011;16889;67.864;24.990;2023-02-15T01:19:57;7.10;;;2.00;;
30062;SDS011;16889;67.864;24.990;2023-02-15T01:24:44;6.85;;;2.00;;
30062;SDS011;16889;67.864;24.990;2023-02-15T01:29:30;5.25;;;1.33;;
30062;SDS011;16889;67.864;24.990;2023-02-15T01:34:16;8.05;;;1.85;;
30062;SDS011;16889;67.864;24.990;2023-02-15T01:39:02;6.25;;;1.83;;
30062;SDS011;16889;67.864;24.990;2023-02-15T01:43:49;6.10;;;1.90;;
30062;SDS011;16889;67.864;24.990;2023-02-15T01:48:42;7.28;;;1.60;;
30062;SDS011;16889;67.864;24.990;2023-02-15T01:53:53;10.63;;;2.38;;
30062;SDS011;16889;67.864;24.990;2023-02-15T01:58:44;8.13;;;1.67;;
30062;SDS011;16889;67.864;24.990;2023-02-15T02:08:41;7.90;;;1.73;;
30062;SDS011;16889;67.864;24.990;2023-02-15T02:13:28;5.07;;;1.83;;
30062;SDS011;16889;67.864;24.990;2023-02-15T02:33:54;8.15;;;1.70;;
30062;SDS011;16889;67.864;24.990;2023-02-15T02:48:58;5.53;;;1.90;;
30062;SDS011;16889;67.864;24.990;2023-02-15T02:53:44;7.23;;;1.70;;
30062;SDS011;16889;67.864;24.990;2023-02-15T03:03:28;5.43;;;1.45;;
30062;SDS011;16889;67.864;24.990;2023-02-15T03:08:20;4.95;;;1.75;;
30062;SDS011;16889;67.864;24.990;2023-02-15T03:13:09;12.98;;;1.88;;
30062;SDS011;16889;67.864;24.990;2023-02-15T03:17:55;8.70;;;1.80;;
30062;SDS011;16889;67.864;24.990;2023-02-15T03:22:46;4.13;;;1.60;;
30062;SDS011;16889;67.864;24.990;2023-02-15T03:27:37;4.63;;;1.48;;
30062;SDS011;16889;67.864;24.990;2023-02-15T03:32:37;9.27;;;1.45;;
30062;SDS011;16889;67.864;24.990;2023-02-15T03:42:18;7.22;;;1.85;;
30062;SDS011;16889;67.864;24.990;2023-02-15T03:47:26;7.20;;;2.03;;
30062;SDS011;16889;67.864;24.990;2023-02-15T03:52:16;7.30;;;1.50;;
30062;SDS011;16889;67.864;24.990;2023-02-15T03:57:04;5.88;;;1.60;;
30062;SDS011;16889;67.864;24.990;2023-02-15T04:02:33;14.82;;;1.50;;
30062;SDS011;16889;67.864;24.990;2023-02-15T04:07:35;6.07;;;1.70;;
30062;SDS011;16889;67.864;24.990;2023-02-15T04:12:21;10.57;;;1.67;;
30062;SDS011;16889;67.864;24.990;2023-02-15T04:17:08;6.95;;;1.40;;
30062;SDS011;16889;67.864;24.990;2023-02-15T04:21:54;6.93;;;1.70;;
30062;SDS011;16889;67.864;24.990;2023-02-15T04:27:00;4.47;;;1.58;;
30062;SDS011;16889;67.864;24.990;2023-02-15T04:31:47;5.75;;;1.60;;
30062;SDS011;16889;67.864;24.990;2023-02-15T04:36:33;12.45;;;1.83;;
30062;SDS011;16889;67.864;24.990;2023-02-15T04:41:19;6.43;;;1.42;;
30062;SDS011;16889;67.864;24.990;2023-02-15T04:46:05;2.90;;;1.20;;
30062;SDS011;16889;67.864;24.990;2023-02-15T04:50:51;3.07;;;1.47;;
30062;SDS011;16889;67.864;24.990;2023-02-15T04:55:37;11.93;;;2.43;;
30062;SDS011;16889;67.864;24.990;2023-02-15T05:00:23;6.53;;;1.40;;
30062;SDS011;16889;67.864;24.990;2023-02-15T05:05:09;4.40;;;1.30;;
30062;SDS011;16889;67.864;24.990;2023-02-15T05:09:58;3.95;;;1.40;;
30062;SDS011;16889;67.864;24.990;2023-02-15T05:14:44;6.40;;;1.33;;
30062;SDS011;16889;67.864;24.990;2023-02-15T05:19:30;8.70;;;1.57;;
30062;SDS011;16889;67.864;24.990;2023-02-15T05:24:15;5.27;;;1.20;;
30062;SDS011;16889;67.864;24.990;2023-02-15T05:29:20;6.53;;;1.33;;
30062;SDS011;16889;67.864;24.990;2023-02-15T05:34:06;2.70;;;1.53;;
30062;SDS011;16889;67.864;24.990;2023-02-15T05:38:52;6.23;;;1.47;;
30062;SDS011;16889;67.864;24.990;2023-02-15T05:43:38;6.70;;;1.47;;
30062;SDS011;16889;67.864;24.990;2023-02-15T05:48:25;5.27;;;1.30;;
30062;SDS011;16889;67.864;24.990;2023-02-15T05:53:12;5.60;;;1.33;;
30062;SDS011;16889;67.864;24.990;2023-02-15T05:57:58;4.43;;;1.23;;
30062;SDS011;16889;67.864;24.990;2023-02-15T06:02:43;11.30;;;1.60;;
30062;SDS011;16889;67.864;24.990;2023-02-15T06:07:29;7.23;;;1.40;;
30062;SDS011;16889;67.864;24.990;2023-02-15T06:12:16;6.20;;;1.55;;
30062;SDS011;16889;67.864;24.990;2023-02-15T06:17:02;7.67;;;1.47;;
30062;SDS011;16889;67.864;24.990;2023-02-15T06:21:48;3.93;;;1.23;;
30062;SDS011;16889;67.864;24.990;2023-02-15T06:26:34;6.22;;;1.25;;
30062;SDS011;16889;67.864;24.990;2023-02-15T06:31:21;10.70;;;1.67;;
30062;SDS011;16889;67.864;24.990;2023-02-15T06:36:06;5.27;;;1.50;;
30062;SDS011;16889;67.864;24.990;2023-02-15T06:40:53;4.93;;;1.65;;
30062;SDS011;16889;67.864;24.990;2023-02-15T06:45:39;3.97;;;1.67;;
30062;SDS011;16889;67.864;24.990;2023-02-15T06:50:26;5.97;;;1.70;;
30062;SDS011;16889;67.864;24.990;2023-02-15T06:55:12;7.50;;;1.30;;
30062;SDS011;16889;67.864;24.990;2023-02-15T06:59:58;3.70;;;1.70;;
30062;SDS011;16889;67.864;24.990;2023-02-15T07:04:44;2.90;;;1.55;;
30062;SDS011;16889;67.864;24.990;2023-02-15T07:09:30;5.43;;;1.50;;
30062;SDS011;16889;67.864;24.990;2023-02-15T07:14:16;3.63;;;1.50;;
30062;SDS011;16889;67.864;24.990;2023-02-15T07:19:02;4.07;;;1.23;;
30062;SDS011;16889;67.864;24.990;2023-02-15T07:23:48;4.95;;;1.70;;
30062;SDS011;16889;67.864;24.990;2023-02-15T07:28:34;5.38;;;2.13;;
30062;SDS011;16889;67.864;24.990;2023-02-15T07:33:21;6.20;;;2.58;;
30062;SDS011;16889;67.864;24.990;2023-02-15T07:38:12;4.35;;;2.10;;
30062;SDS011;16889;67.864;24.990;2023-02-15T07:42:58;8.82;;;2.40;;
30062;SDS011;16889;67.864;24.990;2023-02-15T07:47:44;5.20;;;2.25;;
30062;SDS011;16889;67.864;24.990;2023-02-15T07:52:30;6.28;;;2.17;;
30062;SDS011;16889;67.864;24.990;2023-02-15T07:57:16;5.65;;;1.70;;
30062;SDS011;16889;67.864;24.990;2023-02-15T08:02:01;5.05;;;1.50;;
30062;SDS011;16889;67.864;24.990;2023-02-15T08:06:47;6.15;;;1.63;;
30062;SDS011;16889;67.864;24.990;2023-02-15T08:11:39;5.68;;;1.70;;
30062;SDS011;16889;67.864;24.990;2023-02-15T08:21:16;3.28;;;1.40;;
30062;SDS011;16889;67.864;24.990;2023-02-15T08:26:02;5.00;;;1.60;;
30062;SDS011;16889;67.864;24.990;2023-02-15T08:30:49;2.90;;;1.48;;
30062;SDS011;16889;67.864;24.990;2023-02-15T08:35:35;5.38;;;1.60;;
30062;SDS011;16889;67.864;24.990;2023-02-15T08:40:21;6.20;;;1.20;;
30062;SDS011;16889;67.864;24.990;2023-02-15T08:45:08;3.73;;;1.67;;
30062;SDS011;16889;67.864;24.990;2023-02-15T08:49:54;5.88;;;1.85;;
30062;SDS011;16889;67.864;24.990;2023-02-15T08:54:41;7.70;;;1.93;;
30062;SDS011;16889;67.864;24.990;2023-02-15T08:59:26;5.40;;;1.48;;
30062;SDS011;16889;67.864;24.990;2023-02-15T09:04:13;2.63;;;1.23;;
30062;SDS011;16889;67.864;24.990;2023-02-15T09:09:00;5.28;;;1.67;;
30062;SDS011;16889;67.864;24.990;2023-02-15T09:13:52;3.53;;;1.25;;
30062;SDS011;16889;67.864;24.990;2023-02-15T09:18:45;2.63;;;1.50;;
30062;SDS011;16889;67.864;24.990;2023-02-15T09:23:31;3.33;;;1.25;;
30062;SDS011;16889;67.864;24.990;2023-02-15T09:28:17;1.95;;;1.40;;
30062;SDS011;16889;67.864;24.990;2023-02-15T09:33:03;4.30;;;1.90;;
30062;SDS011;16889;67.864;24.990;2023-02-15T09:37:49;3.28;;;1.40;;
30062;SDS011;16889;67.864;24.990;2023-02-15T09:53:02;5.88;;;1.70;;
30062;SDS011;16889;67.864;24.990;2023-02-15T10:08:49;3.90;;;1.30;;
30062;SDS011;16889;67.864;24.990;2023-02-15T10:18:17;3.70;;;1.25;;
30062;SDS011;16889;67.864;24.990;2023-02-15T10:23:43;5.45;;;1.40;;
30062;SDS011;16889;67.864;24.990;2023-02-15T10:33:42;2.33;;;1.00;;
30062;SDS011;16889;67.864;24.990;2023-02-15T10:44:10;3.58;;;1.02;;
30062;SDS011;16889;67.864;24.990;2023-02-15T10:54:32;4.05;;;1.10;;
30062;SDS011;16889;67.864;24.990;2023-02-15T11:04:55;4.32;;;1.00;;
30062;SDS011;16889;67.864;24.990;2023-02-15T11:10:01;2.22;;;0.88;;
30062;SDS011;16889;67.864;24.990;2023-02-15T11:15:31;1.80;;;0.70;;
30062;SDS011;16889;67.864;24.990;2023-02-15T11:20:30;2.17;;;0.90;;
30062;SDS011;16889;67.864;24.990;2023-02-15T11:25:23;1.65;;;0.88;;
30062;SDS011;16889;67.864;24.990;2023-02-15T11:30:21;2.00;;;0.80;;
30062;SDS011;16889;67.864;24.990;2023-02-15T11:39:55;4.63;;;1.00;;
30062;SDS011;16889;67.864;24.990;2023-02-15T11:44:44;2.03;;;1.10;;
30062;SDS011;16889;67.864;24.990;2023-02-15T11:49:52;1.20;;;0.88;;
30062;SDS011;16889;67.864;24.990;2023-02-15T11:54:46;2.53;;;1.00;;
30062;SDS011;16889;67.864;24.990;2023-02-15T11:59:36;1.38;;;0.85;;
30062;SDS011;16889;67.864;24.990;2023-02-15T12:04:36;5.60;;;1.30;;
30062;SDS011;16889;67.864;24.990;2023-02-15T12:14:47;3.67;;;1.30;;
30062;SDS011;16889;67.864;24.990;2023-02-15T12:19:38;2.90;;;1.20;;
30062;SDS011;16889;67.864;24.990;2023-02-15T12:24:27;2.13;;;0.95;;
30062;SDS011;16889;67.864;24.990;2023-02-15T12:29:16;4.22;;;1.00;;
30062;SDS011;16889;67.864;24.990;2023-02-15T12:34:12;2.45;;;1.00;;
30062;SDS011;16889;67.864;24.990;2023-02-15T12:49:05;4.50;;;1.30;;
30062;SDS011;16889;67.864;24.990;2023-02-15T12:53:53;2.55;;;1.17;;
30062;SDS011;16889;67.864;24.990;2023-02-15T12:58:39;4.65;;;1.20;;
30062;SDS011;16889;67.864;24.990;2023-02-15T13:03:26;2.97;;;1.27;;
30062;SDS011;16889;67.864;24.990;2023-02-15T13:08:14;1.55;;;1.05;;
30062;SDS011;16889;67.864;24.990;2023-02-15T13:13:08;3.22;;;1.30;;
30062;SDS011;16889;67.864;24.990;2023-02-15T13:18:14;2.60;;;0.95;;
30062;SDS011;16889;67.864;24.990;2023-02-15T13:23:05;4.32;;;1.10;;
30062;SDS011;16889;67.864;24.990;2023-02-15T13:28:05;3.58;;;1.23;;
30062;SDS011;16889;67.864;24.990;2023-02-15T13:32:56;7.25;;;1.15;;
30062;SDS011;16889;67.864;24.990;2023-02-15T13:37:54;2.22;;;1.20;;
30062;SDS011;16889;67.864;24.990;2023-02-15T13:43:35;3.67;;;1.10;;
30062;SDS011;16889;67.864;24.990;2023-02-15T13:58:55;2.47;;;1.10;;
30062;SDS011;16889;67.864;24.990;2023-02-15T14:03:57;1.90;;;1.25;;
30062;SDS011;16889;67.864;24.990;2023-02-15T14:19:41;2.38;;;1.10;;
30062;SDS011;16889;67.864;24.990;2023-02-15T14:24:33;4.65;;;1.30;;
30062;SDS011;16889;67.864;24.990;2023-02-15T14:34:48;8.00;;;1.77;;
30062;SDS011;16889;67.864;24.990;2023-02-15T14:45:02;3.67;;;1.58;;
30062;SDS011;16889;67.864;24.990;2023-02-15T14:50:32;8.70;;;1.83;;
30062;SDS011;16889;67.864;24.990;2023-02-15T14:55:21;6.38;;;1.80;;
30062;SDS011;16889;67.864;24.990;2023-02-15T15:00:29;5.40;;;1.80;;
30062;SDS011;16889;67.864;24.990;2023-02-15T15:05:28;4.88;;;1.63;;
30062;SDS011;16889;67.864;24.990;2023-02-15T15:15:06;3.40;;;1.50;;
30062;SDS011;16889;67.864;24.990;2023-02-15T15:19:56;4.80;;;1.98;;
30062;SDS011;16889;67.864;24.990;2023-02-15T15:25:10;5.45;;;1.65;;
30062;SDS011;16889;67.864;24.990;2023-02-15T15:29:56;3.80;;;1.70;;
30062;SDS011;16889;67.864;24.990;2023-02-15T15:34:50;5.47;;;1.80;;
30062;SDS011;16889;67.864;24.990;2023-02-15T15:50:40;3.28;;;2.10;;
30062;SDS011;16889;67.864;24.990;2023-02-15T15:55:30;6.43;;;2.22;;
30062;SDS011;16889;67.864;24.990;2023-02-15T16:00:35;6.05;;;2.50;;
30062;SDS011;16889;67.864;24.990;2023-02-15T16:05:24;5.32;;;2.00;;
30062;SDS011;16889;67.864;24.990;2023-02-15T16:10:20;7.60;;;2.33;;
30062;SDS011;16889;67.864;24.990;2023-02-15T16:15:19;6.28;;;2.40;;
30062;SDS011;16889;67.864;24.990;2023-02-15T16:20:23;4.72;;;2.67;;
30062;SDS011;16889;67.864;24.990;2023-02-15T16:30:29;7.88;;;2.88;;
30062;SDS011;16889;67.864;24.990;2023-02-15T16:35:20;5.70;;;2.78;;
30062;SDS011;16889;67.864;24.990;2023-02-15T16:45:13;8.05;;;2.95;;
30062;SDS011;16889;67.864;24.990;2023-02-15T16:50:03;5.82;;;3.10;;
30062;SDS011;16889;67.864;24.990;2023-02-15T16:55:02;5.88;;;2.45;;
30062;SDS011;16889;67.864;24.990;2023-02-15T16:59:52;5.05;;;2.40;;
30062;SDS011;16889;67.864;24.990;2023-02-15T17:04:41;5.85;;;2.38;;
30062;SDS011;16889;67.864;24.990;2023-02-15T17:09:27;4.32;;;2.65;;
30062;SDS011;16889;67.864;24.990;2023-02-15T17:14:19;3.67;;;2.30;;
30062;SDS011;16889;67.864;24.990;2023-02-15T17:19:16;6.43;;;2.67;;
30062;SDS011;16889;67.864;24.990;2023-02-15T17:24:03;6.75;;;3.30;;
30062;SDS011;16889;67.864;24.990;2023-02-15T17:28:51;5.37;;;2.47;;
30062;SDS011;16889;67.864;24.990;2023-02-15T17:33:42;4.20;;;2.72;;
30062;SDS011;16889;67.864;24.990;2023-02-15T17:38:28;5.57;;;3.00;;
30062;SDS011;16889;67.864;24.990;2023-02-15T17:43:14;4.97;;;2.90;;
30062;SDS011;16889;67.864;24.990;2023-02-15T17:48:01;7.13;;;2.65;;
30062;SDS011;16889;67.864;24.990;2023-02-15T17:52:51;5.30;;;2.92;;
30062;SDS011;16889;67.864;24.990;2023-02-15T17:57:38;5.68;;;3.03;;
30062;SDS011;16889;67.864;24.990;2023-02-15T18:02:24;7.80;;;3.25;;
30062;SDS011;16889;67.864;24.990;2023-02-15T18:07:29;8.90;;;3.17;;
30062;SDS011;16889;67.864;24.990;2023-02-15T18:12:34;7.60;;;3.15;;
30062;SDS011;16889;67.864;24.990;2023-02-15T18:17:27;6.00;;;3.08;;
30062;SDS011;16889;67.864;24.990;2023-02-15T18:22:17;7.65;;;3.20;;
30062;SDS011;16889;67.864;24.990;2023-02-15T18:27:04;8.57;;;3.33;;
30062;SDS011;16889;67.864;24.990;2023-02-15T18:31:51;5.60;;;3.53;;
30062;SDS011;16889;67.864;24.990;2023-02-15T18:36:40;9.48;;;3.30;;
30062;SDS011;16889;67.864;24.990;2023-02-15T18:41:29;6.32;;;3.10;;
30062;SDS011;16889;67.864;24.990;2023-02-15T18:46:15;6.60;;;3.33;;
30062;SDS011;16889;67.864;24.990;2023-02-15T18:51:02;6.40;;;3.30;;
30062;SDS011;16889;67.864;24.990;2023-02-15T18:55:48;6.83;;;3.43;;
30062;SDS011;16889;67.864;24.990;2023-02-15T19:00:34;6.60;;;3.30;;
30062;SDS011;16889;67.864;24.990;2023-02-15T19:05:20;7.70;;;4.10;;
30062;SDS011;16889;67.864;24.990;2023-02-15T19:10:07;6.83;;;3.37;;
30062;SDS011;16889;67.864;24.990;2023-02-15T19:14:59;7.32;;;4.13;;
30062;SDS011;16889;67.864;24.990;2023-02-15T19:19:46;9.55;;;4.10;;
30062;SDS011;16889;67.864;24.990;2023-02-15T19:24:36;15.10;;;4.25;;
30062;SDS011;16889;67.864;24.990;2023-02-15T19:29:25;7.93;;;3.97;;
30062;SDS011;16889;67.864;24.990;2023-02-15T19:34:14;9.45;;;4.05;;
30062;SDS011;16889;67.864;24.990;2023-02-15T19:39:02;8.60;;;4.10;;
30062;SDS011;16889;67.864;24.990;2023-02-15T19:43:49;9.65;;;4.25;;
30062;SDS011;16889;67.864;24.990;2023-02-15T19:48:39;6.45;;;3.75;;
30062;SDS011;16889;67.864;24.990;2023-02-15T19:53:25;14.95;;;4.80;;
30062;SDS011;16889;67.864;24.990;2023-02-15T20:02:58;11.20;;;4.25;;
30062;SDS011;16889;67.864;24.990;2023-02-15T20:07:49;10.97;;;4.27;;
30062;SDS011;16889;67.864;24.990;2023-02-15T20:12:36;13.38;;;4.55;;
30062;SDS011;16889;67.864;24.990;2023-02-15T20:17:22;10.75;;;4.30;;
30062;SDS011;16889;67.864;24.990;2023-02-15T20:22:22;7.50;;;4.03;;
30062;SDS011;16889;67.864;24.990;2023-02-15T20:27:14;8.93;;;4.00;;
30062;SDS011;16889;67.864;24.990;2023-02-15T20:32:01;7.38;;;4.30;;
30062;SDS011;16889;67.864;24.990;2023-02-15T20:36:47;7.80;;;4.00;;
30062;SDS011;16889;67.864;24.990;2023-02-15T20:41:34;8.63;;;4.50;;
30062;SDS011;16889;67.864;24.990;2023-02-15T20:46:20;11.57;;;4.38;;
30062;SDS011;16889;67.864;24.990;2023-02-15T20:51:09;10.00;;;4.47;;
30062;SDS011;16889;67.864;24.990;2023-02-15T20:56:03;8.82;;;4.35;;
30062;SDS011;16889;67.864;24.990;2023-02-15T21:00:49;9.05;;;4.70;;
30062;SDS011;16889;67.864;24.990;2023-02-15T21:05:36;10.43;;;5.28;;
30062;SDS011;16889;67.864;24.990;2023-02-15T21:10:23;10.38;;;5.32;;
30062;SDS011;16889;67.864;24.990;2023-02-15T21:20:26;12.50;;;6.45;;
30062;SDS011;16889;67.864;24.990;2023-02-15T21:25:13;14.93;;;6.95;;
30062;SDS011;16889;67.864;24.990;2023-02-15T21:30:05;13.50;;;6.65;;
30062;SDS011;16889;67.864;24.990;2023-02-15T21:35:02;17.15;;;7.57;;
30062;SDS011;16889;67.864;24.990;2023-02-15T21:39:49;18.05;;;8.00;;
30062;SDS011;16889;67.864;24.990;2023-02-15T21:44:35;23.48;;;8.63;;
30062;SDS011;16889;67.864;24.990;2023-02-15T21:49:39;19.63;;;9.30;;
30062;SDS011;16889;67.864;24.990;2023-02-15T21:54:25;21.90;;;9.27;;
30062;SDS011;16889;67.864;24.990;2023-02-15T21:59:12;27.60;;;10.60;;
30062;SDS011;16889;67.864;24.990;2023-02-15T22:04:00;26.67;;;9.70;;
30062;SDS011;16889;67.864;24.990;2023-02-15T22:08:46;24.88;;;9.80;;
30062;SDS011;16889;67.864;24.990;2023-02-15T22:13:32;25.05;;;9.57;;
30062;SDS011;16889;67.864;24.990;2023-02-15T22:18:20;23.40;;;9.10;;
30062;SDS011;16889;67.864;24.990;2023-02-15T22:23:08;28.38;;;9.48;;
30062;SDS011;16889;67.864;24.990;2023-02-15T22:27:54;29.42;;;10.13;;
30062;SDS011;16889;67.864;24.990;2023-02-15T22:32:40;27.33;;;10.10;;
30062;SDS011;16889;67.864;24.990;2023-02-15T22:37:26;23.88;;;9.07;;
30062;SDS011;16889;67.864;24.990;2023-02-15T22:47:15;20.95;;;9.02;;
30062;SDS011;16889;67.864;24.990;2023-02-15T22:52:12;25.05;;;9.70;;
30062;SDS011;16889;67.864;24.990;2023-02-15T22:56:59;23.30;;;9.70;;
30062;SDS011;16889;67.864;24.990;2023-02-15T23:01:45;26.10;;;10.30;;
30062;SDS011;16889;67.864;24.990;2023-02-15T23:06:32;22.57;;;10.20;;
30062;SDS011;16889;67.864;24.990;2023-02-15T23:11:18;31.80;;;11.00;;
30062;SDS011;16889;67.864;24.990;2023-02-15T23:16:06;24.57;;;9.97;;
30062;SDS011;16889;67.864;24.990;2023-02-15T23:21:01;28.02;;;10.90;;
30062;SDS011;16889;67.864;24.990;2023-02-15T23:25:50;22.23;;;9.30;;
30062;SDS011;16889;67.864;24.990;2023-02-15T23:30:36;25.95;;;10.23;;
30062;SDS011;16889;67.864;24.990;2023-02-15T23:35:22;25.13;;;10.38;;
30062;SDS011;16889;67.864;24.990;2023-02-15T23:40:12;22.92;;;9.45;;
30062;SDS011;16889;67.864;24.990;2023-02-15T23:45:20;19.00;;;9.20;;
30062;SDS011;16889;67.864;24.990;2023-02-15T23:50:15;20.52;;;9.52;;
30062;SDS011;16889;67.864;24.990;2023-02-15T23:55:02;22.35;;;9.07;;
30062;SDS011;16889;67.864;24.990;2023-02-15T23:59:48;17.05;;;9.13;;
